Time;durP1;ratioP1;P1;durP2;ratioP2;P2;SDS_P1;SDS_P2;PMS_P1;PMS_P2;Temp;Humidity;BMP_temperature;BMP_pressure;BME280_temperature;BME280_humidity;BME280_pressure;Samples;Min_cycle;Max_cycle;Signal;HPM_P1;HPM_P2
2021/10/15 00:00:55;;;;;;;12.30;6.85;;;11.80;99.90;;;;;;5033357;28;20025;-93
2021/10/15 00:03:20;;;;;;;14.50;6.60;;;11.80;99.90;;;;;;5032788;28;20030;-91
2021/10/15 00:05:46;;;;;;;12.63;6.60;;;11.80;99.90;;;;;;5032894;28;20037;-92
2021/10/15 00:08:12;;;;;;;11.88;6.90;;;11.80;99.90;;;;;;5049139;28;20022;-91
2021/10/15 00:10:37;;;;;;;9.57;7.30;;;11.80;99.90;;;;;;5032068;28;20098;-91
2021/10/15 00:13:03;;;;;;;10.88;7.05;;;11.70;99.90;;;;;;5032204;28;20049;-93
2021/10/15 00:15:29;;;;;;;10.90;7.15;;;11.70;99.90;;;;;;5032045;28;20045;-92
2021/10/15 00:17:55;;;;;;;13.40;6.30;;;11.70;99.90;;;;;;5032316;28;20033;-91
2021/10/15 00:20:20;;;;;;;9.02;6.20;;;11.70;99.90;;;;;;5031963;28;20033;-90
2021/10/15 00:22:46;;;;;;;9.45;5.72;;;11.70;99.90;;;;;;5049061;28;20025;-89
2021/10/15 00:25:11;;;;;;;10.90;6.55;;;11.70;99.90;;;;;;5032609;28;20437;-89
2021/10/15 00:27:37;;;;;;;8.68;4.90;;;11.70;99.90;;;;;;5032457;28;20021;-91
2021/10/15 00:30:03;;;;;;;8.18;4.75;;;11.70;99.90;;;;;;5032493;28;20425;-89
2021/10/15 00:32:29;;;;;;;8.75;5.32;;;11.70;99.90;;;;;;5032263;28;20049;-89
2021/10/15 00:34:55;;;;;;;8.93;5.05;;;11.70;99.90;;;;;;5032522;28;20072;-89
2021/10/15 00:37:20;;;;;;;8.50;5.10;;;11.70;99.90;;;;;;5049756;28;20022;-90
2021/10/15 00:39:47;;;;;;;8.70;4.53;;;11.70;99.90;;;;;;5037988;28;20475;-89
2021/10/15 00:42:13;;;;;;;5.63;4.45;;;11.70;99.90;;;;;;5040434;28;20029;-90
2021/10/15 00:44:39;;;;;;;5.05;3.90;;;11.70;99.90;;;;;;5036385;28;20113;-90
2021/10/15 00:47:05;;;;;;;5.18;3.75;;;11.70;99.90;;;;;;5032395;28;20021;-89
2021/10/15 00:49:31;;;;;;;6.82;3.90;;;11.70;99.90;;;;;;5032272;28;20033;-89
2021/10/15 00:51:57;;;;;;;5.15;3.70;;;11.80;99.90;;;;;;5032478;28;20034;-90
2021/10/15 00:54:23;;;;;;;8.38;4.15;;;11.70;99.90;;;;;;5048696;28;20041;-90
2021/10/15 00:56:49;;;;;;;6.30;3.80;;;11.80;99.90;;;;;;5032089;28;20028;-91
2021/10/15 00:59:15;;;;;;;5.82;3.13;;;11.80;99.90;;;;;;5032048;28;20026;-88
2021/10/15 01:01:41;;;;;;;3.00;2.65;;;11.80;99.90;;;;;;5032326;28;20021;-90
2021/10/15 01:04:07;;;;;;;6.07;3.80;;;11.80;99.90;;;;;;5032422;28;20407;-91
2021/10/15 01:06:33;;;;;;;2.85;1.90;;;11.80;99.90;;;;;;5032073;28;20053;-90
2021/10/15 01:09:00;;;;;;;2.65;1.42;;;11.80;99.90;;;;;;5031818;28;20034;-90
2021/10/15 01:11:27;;;;;;;2.35;1.23;;;11.80;99.90;;;;;;5032115;28;20026;-91
2021/10/15 01:13:56;;;;;;;1.58;1.48;;;11.80;99.90;;;;;;5032068;28;20046;-92
2021/10/15 01:16:28;;;;;;;4.78;1.10;;;11.80;99.90;;;;;;5031857;28;20021;-92
2021/10/15 01:18:57;;;;;;;1.33;1.23;;;11.80;99.90;;;;;;5032792;28;20489;-92
2021/10/15 01:21:23;;;;;;;1.40;1.17;;;11.80;99.90;;;;;;5030537;28;20047;-92
2021/10/15 01:23:48;;;;;;;1.38;0.82;;;11.80;99.90;;;;;;5031972;28;20037;-90
2021/10/15 01:26:14;;;;;;;3.05;1.80;;;11.80;99.90;;;;;;5049344;28;20033;-91
2021/10/15 01:28:40;;;;;;;1.08;0.80;;;11.80;99.90;;;;;;5036640;28;20021;-93
2021/10/15 01:31:06;;;;;;;0.95;0.70;;;11.80;99.90;;;;;;5035522;28;20056;-92
2021/10/15 01:33:33;;;;;;;0.93;0.52;;;11.80;99.90;;;;;;5035322;28;20112;-92
2021/10/15 01:35:59;;;;;;;0.85;0.63;;;11.80;99.90;;;;;;5035583;28;20033;-92
2021/10/15 01:38:25;;;;;;;1.38;0.73;;;11.80;99.90;;;;;;5035353;28;20078;-92
2021/10/15 01:40:51;;;;;;;2.90;1.15;;;11.80;99.90;;;;;;5035564;28;20033;-91
2021/10/15 01:43:23;;;;;;;1.27;0.98;;;11.90;99.90;;;;;;5052433;28;20041;-90
2021/10/15 01:45:49;;;;;;;1.17;0.80;;;11.80;99.90;;;;;;5035393;28;20037;-90
2021/10/15 01:48:15;;;;;;;2.95;1.05;;;11.80;99.90;;;;;;5035302;28;20025;-91
2021/10/15 01:50:41;;;;;;;3.08;0.80;;;11.60;99.90;;;;;;5035275;28;20853;-90
2021/10/15 01:53:07;;;;;;;2.60;1.38;;;11.40;99.90;;;;;;5051695;28;20041;-91
2021/10/15 01:55:33;;;;;;;2.35;1.10;;;11.20;99.90;;;;;;5035114;28;20037;-94
2021/10/15 01:57:58;;;;;;;1.25;1.10;;;11.00;99.90;;;;;;5034897;28;20025;-92
2021/10/15 02:00:24;;;;;;;3.78;1.45;;;10.80;99.90;;;;;;5035003;28;20025;-91
2021/10/15 02:02:50;;;;;;;4.05;1.75;;;10.70;99.90;;;;;;5034868;28;20041;-90
2021/10/15 02:05:17;;;;;;;2.20;1.98;;;10.60;99.90;;;;;;5034879;28;20418;-93
2021/10/15 02:07:43;;;;;;;4.38;2.92;;;10.50;99.90;;;;;;5034490;28;20128;-92
2021/10/15 02:10:14;;;;;;;2.72;2.53;;;10.30;99.90;;;;;;5035013;28;20090;-92
2021/10/15 02:12:40;;;;;;;5.07;2.45;;;10.20;99.90;;;;;;5051778;28;20067;-92
2021/10/15 02:15:08;;;;;;;2.53;2.30;;;10.10;99.90;;;;;;5035110;28;20040;-93
2021/10/15 02:17:34;;;;;;;1.83;1.70;;;10.10;99.90;;;;;;5034585;28;20062;-90
2021/10/15 02:19:59;;;;;;;4.78;2.20;;;10.00;99.90;;;;;;5034836;28;20025;-90
2021/10/15 02:22:25;;;;;;;2.08;1.50;;;10.00;99.90;;;;;;5034842;28;20021;-91
2021/10/15 02:24:51;;;;;;;2.60;1.70;;;9.90;99.90;;;;;;5035866;28;20030;-91
2021/10/15 02:27:16;;;;;;;1.83;1.60;;;9.80;99.90;;;;;;5057696;28;20494;-92
2021/10/15 02:29:42;;;;;;;2.38;1.60;;;9.80;99.90;;;;;;5043110;28;20486;-91
2021/10/15 02:32:08;;;;;;;2.58;1.60;;;9.80;99.90;;;;;;5053912;28;20478;-94
2021/10/15 02:34:34;;;;;;;2.63;1.95;;;9.70;99.90;;;;;;5034971;28;20231;-93
2021/10/15 02:37:00;;;;;;;3.17;2.00;;;9.60;99.90;;;;;;5035258;28;20032;-93
2021/10/15 02:39:25;;;;;;;2.13;1.90;;;9.60;99.90;;;;;;5037863;28;20368;-92
2021/10/15 02:41:51;;;;;;;2.17;1.80;;;9.60;99.90;;;;;;5035210;28;20550;-91
2021/10/15 02:44:17;;;;;;;1.90;1.70;;;9.60;99.90;;;;;;5035005;28;20029;-92
2021/10/15 02:46:43;;;;;;;2.95;1.45;;;9.60;99.90;;;;;;5052543;28;20120;-93
2021/10/15 02:49:09;;;;;;;3.65;1.80;;;9.50;99.90;;;;;;5035313;28;20108;-92
2021/10/15 02:51:35;;;;;;;1.95;1.40;;;9.60;99.90;;;;;;5043450;28;20059;-94
2021/10/15 02:54:02;;;;;;;1.85;1.40;;;9.50;99.90;;;;;;5042600;28;20112;-92
2021/10/15 02:56:27;;;;;;;2.03;1.85;;;9.50;99.90;;;;;;5035958;28;20025;-93
2021/10/15 02:58:53;;;;;;;1.30;1.15;;;9.50;99.90;;;;;;5037146;28;20028;-92
2021/10/15 03:01:19;;;;;;;1.80;1.42;;;9.50;99.90;;;;;;5053500;28;20036;-93
2021/10/15 03:03:44;;;;;;;2.33;1.60;;;9.50;99.90;;;;;;5036142;28;20021;-92
2021/10/15 03:06:11;;;;;;;4.13;1.33;;;9.50;99.90;;;;;;5036318;28;20048;-93
2021/10/15 03:08:37;;;;;;;1.85;1.13;;;9.50;99.90;;;;;;5037422;28;20029;-92
2021/10/15 03:11:03;;;;;;;1.63;1.20;;;9.50;99.90;;;;;;5037961;28;20037;-92
2021/10/15 03:13:29;;;;;;;3.55;1.13;;;9.50;99.90;;;;;;5035086;28;20046;-94
2021/10/15 03:15:54;;;;;;;1.33;1.00;;;9.40;99.90;;;;;;5050919;28;20045;-93
2021/10/15 03:18:20;;;;;;;4.93;1.42;;;9.40;99.90;;;;;;5035025;28;20025;-92
2021/10/15 03:20:46;;;;;;;4.30;1.13;;;9.40;99.90;;;;;;5051152;28;20037;-94
2021/10/15 03:23:12;;;;;;;4.10;0.90;;;9.40;99.90;;;;;;5036211;28;20053;-93
2021/10/15 03:25:38;;;;;;;2.92;0.75;;;9.30;99.90;;;;;;5040108;28;20475;-93
2021/10/15 03:28:04;;;;;;;2.35;0.82;;;9.30;99.90;;;;;;5039451;28;20040;-93
2021/10/15 03:30:30;;;;;;;4.28;1.15;;;9.30;99.90;;;;;;5041271;28;20021;-94
2021/10/15 03:32:56;;;;;;;2.33;0.90;;;9.30;99.90;;;;;;5036212;28;20037;-93
2021/10/15 03:35:22;;;;;;;1.98;0.88;;;9.20;99.90;;;;;;5033922;28;20559;-91
2021/10/15 03:37:48;;;;;;;4.50;1.02;;;9.30;99.90;;;;;;5051092;28;20032;-91
2021/10/15 03:40:14;;;;;;;3.17;0.90;;;9.20;99.90;;;;;;5034300;28;20022;-93
2021/10/15 03:42:40;;;;;;;2.97;0.93;;;9.20;99.90;;;;;;5036881;28;20025;-93
2021/10/15 03:45:07;;;;;;;4.65;1.17;;;9.20;99.90;;;;;;5035969;28;20372;-92
2021/10/15 03:47:34;;;;;;;1.63;0.95;;;9.20;99.90;;;;;;5019223;28;20029;-93
2021/10/15 03:50:00;;;;;;;5.25;0.98;;;9.20;99.90;;;;;;5033375;28;20033;-93
2021/10/15 03:52:26;;;;;;;3.17;0.98;;;9.20;99.90;;;;;;5034150;28;20581;-93
2021/10/15 03:54:52;;;;;;;5.78;1.13;;;9.20;99.90;;;;;;5033900;28;20041;-93
2021/10/15 03:57:17;;;;;;;3.78;1.05;;;9.10;99.90;;;;;;5033432;28;20064;-92
2021/10/15 03:59:43;;;;;;;5.85;1.00;;;9.10;99.90;;;;;;5034445;28;20064;-93
2021/10/15 04:02:09;;;;;;;2.38;1.00;;;9.10;99.90;;;;;;5033564;28;20522;-93
2021/10/15 04:04:34;;;;;;;3.13;1.15;;;9.10;99.90;;;;;;5032789;28;20025;-92
2021/10/15 04:07:00;;;;;;;3.22;0.80;;;9.10;99.90;;;;;;5033332;28;20032;-92
2021/10/15 04:09:26;;;;;;;3.42;0.95;;;9.00;99.90;;;;;;5034129;28;20034;-93
2021/10/15 04:11:52;;;;;;;2.70;0.85;;;9.00;99.90;;;;;;5035764;28;20439;-95
2021/10/15 04:14:18;;;;;;;4.53;1.00;;;9.00;99.90;;;;;;5038470;28;20055;-91
2021/10/15 04:16:43;;;;;;;4.97;0.60;;;9.00;99.90;;;;;;5041916;28;20033;-92
2021/10/15 04:19:09;;;;;;;6.10;1.70;;;9.00;99.90;;;;;;5033760;28;20028;-92
2021/10/15 04:21:35;;;;;;;4.80;0.75;;;9.00;99.90;;;;;;5032667;28;20021;-92
2021/10/15 04:24:01;;;;;;;5.57;1.20;;;8.90;99.90;;;;;;5032526;28;20124;-90
2021/10/15 04:26:26;;;;;;;4.00;1.30;;;8.90;99.90;;;;;;5051897;28;20068;-91
2021/10/15 04:28:52;;;;;;;3.80;1.00;;;8.90;99.90;;;;;;5032953;28;20021;-92
2021/10/15 04:31:18;;;;;;;2.85;0.88;;;8.80;99.90;;;;;;5032097;28;20037;-92
2021/10/15 04:33:43;;;;;;;3.55;0.73;;;8.80;99.90;;;;;;5048812;28;20041;-90
2021/10/15 04:36:09;;;;;;;2.78;0.65;;;8.70;99.90;;;;;;5032045;28;20120;-94
2021/10/15 04:38:35;;;;;;;1.02;0.60;;;8.70;99.90;;;;;;5032392;28;20021;-92
2021/10/15 04:41:01;;;;;;;2.85;0.77;;;8.70;99.90;;;;;;5032055;28;20477;-92
2021/10/15 04:43:27;;;;;;;3.03;0.93;;;8.70;99.90;;;;;;5032111;28;20033;-92
2021/10/15 04:45:52;;;;;;;3.92;0.73;;;8.70;99.90;;;;;;5032064;28;20056;-91
2021/10/15 04:48:18;;;;;;;4.05;0.80;;;8.70;99.90;;;;;;5048679;28;20036;-92
2021/10/15 04:50:44;;;;;;;3.58;1.00;;;8.60;99.90;;;;;;5031930;28;20040;-92
2021/10/15 04:53:09;;;;;;;3.10;1.00;;;8.60;99.90;;;;;;5031754;28;20025;-92
2021/10/15 04:55:36;;;;;;;4.13;1.05;;;8.50;99.90;;;;;;5031826;28;20033;-93
2021/10/15 04:58:02;;;;;;;2.42;0.90;;;8.50;99.90;;;;;;5031699;28;20021;-92
2021/10/15 05:00:29;;;;;;;2.38;0.60;;;8.50;99.90;;;;;;5032652;28;20545;-93
2021/10/15 05:02:55;;;;;;;1.17;0.70;;;8.50;99.90;;;;;;5052790;28;20026;-92
2021/10/15 05:05:27;;;;;;;4.82;0.85;;;8.40;99.90;;;;;;5036497;28;20380;-92
2021/10/15 05:07:53;;;;;;;2.15;0.57;;;8.30;99.90;;;;;;5035981;28;20021;-91
2021/10/15 05:10:22;;;;;;;2.70;0.60;;;8.20;99.90;;;;;;5035847;28;20025;-91
2021/10/15 05:12:52;;;;;;;2.63;0.98;;;8.20;99.90;;;;;;5052738;28;20034;-93
2021/10/15 05:15:20;;;;;;;3.13;0.70;;;8.10;99.90;;;;;;5036428;28;20033;-93
2021/10/15 05:17:47;;;;;;;1.67;0.50;;;8.00;99.90;;;;;;5036613;28;20021;-92
2021/10/15 05:20:16;;;;;;;3.90;0.60;;;8.00;99.90;;;;;;5037728;28;20544;-92
2021/10/15 05:22:42;;;;;;;3.90;0.77;;;7.90;99.90;;;;;;5036311;28;20022;-93
2021/10/15 05:25:09;;;;;;;3.40;0.80;;;7.90;99.90;;;;;;5035978;28;20112;-93
2021/10/15 05:27:35;;;;;;;18.42;1.20;;;7.80;99.90;;;;;;5052035;28;20029;-94
2021/10/15 05:30:01;;;;;;;3.08;0.70;;;7.70;99.90;;;;;;5035557;28;20021;-93
2021/10/15 05:32:27;;;;;;;1.48;0.75;;;7.60;99.90;;;;;;5035806;28;20030;-94
2021/10/15 05:34:53;;;;;;;4.68;0.85;;;7.60;99.90;;;;;;5035695;28;20129;-92
2021/10/15 05:37:19;;;;;;;2.75;0.80;;;7.50;99.90;;;;;;5052644;28;20231;-92
2021/10/15 05:39:45;;;;;;;7.35;0.70;;;7.40;99.90;;;;;;5042672;28;20038;-95
2021/10/15 05:42:11;;;;;;;3.30;0.70;;;7.40;99.90;;;;;;5042644;28;20018;-94
2021/10/15 05:44:37;;;;;;;5.93;0.75;;;7.40;99.90;;;;;;5038409;28;20021;-93
2021/10/15 05:47:04;;;;;;;4.85;0.52;;;7.30;99.90;;;;;;5038108;28;20446;-93
2021/10/15 05:49:32;;;;;;;4.20;1.02;;;7.30;99.90;;;;;;5040088;28;20026;-94
2021/10/15 05:52:10;;;;;;;3.80;0.80;;;7.20;99.90;;;;;;5040331;28;20120;-93
2021/10/15 05:59:53;;;;;;;3.92;0.80;;;7.00;99.90;;;;;;5037007;28;20056;-93
2021/10/15 06:02:18;;;;;;;3.80;1.20;;;7.00;99.90;;;;;;5035719;28;20021;-93
2021/10/15 06:15:50;;;;;;;4.82;0.70;;;6.80;99.90;;;;;;4956786;29;20496;-93
2021/10/15 06:18:21;;;;;;;3.92;1.00;;;6.80;99.90;;;;;;4958240;29;20038;-94
2021/10/15 06:20:47;;;;;;;2.55;0.68;;;6.80;99.90;;;;;;4961850;29;20043;-94
2021/10/15 06:23:14;;;;;;;1.88;0.65;;;6.80;99.90;;;;;;4959644;29;20038;-93
2021/10/15 06:25:40;;;;;;;2.60;0.50;;;6.70;99.90;;;;;;4959278;29;20023;-93
2021/10/15 06:28:13;;;;;;;7.35;0.88;;;6.70;99.90;;;;;;4956731;28;20073;-93
2021/10/15 06:30:39;;;;;;;1.08;0.57;;;6.70;99.90;;;;;;4943052;29;20429;-94
2021/10/15 06:33:06;;;;;;;8.40;1.05;;;6.70;99.90;;;;;;4942637;29;20042;-94
2021/10/15 06:35:32;;;;;;;3.55;0.93;;;6.60;99.90;;;;;;4943332;29;20045;-94
2021/10/15 06:37:58;;;;;;;2.08;0.70;;;6.60;99.90;;;;;;4945749;29;20023;-93
2021/10/15 06:40:24;;;;;;;4.03;0.57;;;6.50;99.90;;;;;;4944692;29;20035;-93
2021/10/15 06:42:50;;;;;;;3.97;0.73;;;6.60;99.90;;;;;;4959816;29;20436;-93
2021/10/15 06:45:16;;;;;;;3.50;0.65;;;6.60;99.90;;;;;;4946432;29;20023;-94
2021/10/15 06:47:42;;;;;;;5.35;0.82;;;6.50;99.90;;;;;;5045196;28;20025;-93
2021/10/15 06:50:11;;;;;;;3.42;0.70;;;6.50;99.90;;;;;;5025116;28;20502;-93
2021/10/15 06:52:46;;;;;;;3.85;0.80;;;6.50;99.90;;;;;;5011720;28;20038;-92
2021/10/15 06:55:18;;;;;;;2.35;0.70;;;6.50;99.90;;;;;;5048956;28;20037;-91
2021/10/15 06:57:45;;;;;;;3.55;0.80;;;6.50;99.90;;;;;;5046977;28;20529;-92
2021/10/15 07:00:12;;;;;;;5.32;0.80;;;6.40;99.90;;;;;;5049033;28;20036;-91
2021/10/15 07:02:39;;;;;;;2.92;1.10;;;6.40;99.90;;;;;;5049951;28;20093;-90
2021/10/15 07:05:05;;;;;;;4.18;1.65;;;6.40;99.90;;;;;;5045034;28;20049;-91
2021/10/15 07:07:32;;;;;;;3.03;0.70;;;6.30;99.90;;;;;;5037454;28;20129;-90
2021/10/15 07:10:00;;;;;;;3.03;0.77;;;6.30;99.90;;;;;;5037561;28;20029;-91
2021/10/15 07:12:27;;;;;;;2.33;0.90;;;6.30;99.90;;;;;;5037517;28;20386;-91
2021/10/15 07:14:53;;;;;;;5.68;1.10;;;6.20;99.90;;;;;;5052337;28;20125;-91
2021/10/15 07:17:19;;;;;;;5.47;0.80;;;6.20;99.90;;;;;;5036523;28;20036;-91
2021/10/15 07:19:44;;;;;;;5.57;1.52;;;6.20;99.90;;;;;;5036102;28;20531;-91
2021/10/15 07:22:10;;;;;;;4.43;1.30;;;6.20;99.90;;;;;;5035773;28;20030;-90
2021/10/15 07:24:36;;;;;;;4.40;1.00;;;6.20;99.90;;;;;;5031385;28;20495;-89
2021/10/15 07:27:01;;;;;;;10.52;2.13;;;6.20;99.90;;;;;;5049526;28;20059;-90
2021/10/15 07:29:27;;;;;;;5.70;1.73;;;6.20;99.90;;;;;;5035697;28;20025;-90
2021/10/15 07:31:53;;;;;;;6.10;1.20;;;6.20;99.90;;;;;;5045028;28;20029;-90
2021/10/15 07:34:18;;;;;;;9.85;1.50;;;6.20;99.90;;;;;;5027755;28;20018;-91
2021/10/15 07:36:44;;;;;;;6.53;1.63;;;6.10;99.90;;;;;;5026271;28;20026;-92
2021/10/15 07:39:11;;;;;;;4.55;1.75;;;6.10;99.90;;;;;;5026429;28;20112;-91
2021/10/15 07:41:43;;;;;;;8.32;1.48;;;6.10;99.90;;;;;;5027893;28;20033;-90
2021/10/15 07:44:12;;;;;;;4.63;1.42;;;6.10;99.90;;;;;;5029923;28;20035;-93
2021/10/15 07:46:39;;;;;;;4.47;1.10;;;6.10;99.90;;;;;;5018897;28;20034;-91
2021/10/15 07:49:06;;;;;;;1.88;1.00;;;6.10;99.90;;;;;;5040225;28;20068;-91
2021/10/15 07:51:32;;;;;;;7.95;1.55;;;6.30;99.90;;;;;;5024676;28;20080;-90
2021/10/15 07:53:57;;;;;;;4.47;1.10;;;6.40;99.90;;;;;;5022675;28;20053;-91
2021/10/15 07:56:23;;;;;;;3.67;1.02;;;6.50;99.90;;;;;;5024887;28;20080;-90
2021/10/15 07:58:49;;;;;;;5.88;1.10;;;6.50;99.90;;;;;;5031262;28;20041;-90
2021/10/15 08:01:14;;;;;;;9.68;1.52;;;6.70;99.90;;;;;;5025078;28;20064;-91
2021/10/15 08:03:40;;;;;;;2.47;0.50;;;6.80;99.90;;;;;;5020629;28;20025;-91
2021/10/15 08:06:07;;;;;;;3.17;0.98;;;7.00;99.90;;;;;;5025218;28;20573;-90
2021/10/15 08:08:32;;;;;;;4.97;0.88;;;7.00;99.90;;;;;;5033375;28;20021;-91
2021/10/15 08:10:58;;;;;;;2.30;0.70;;;7.10;99.90;;;;;;5032810;28;20391;-90
2021/10/15 08:13:24;;;;;;;7.75;0.90;;;7.20;99.90;;;;;;5025667;28;20037;-91
2021/10/15 08:15:50;;;;;;;6.43;1.20;;;7.30;99.90;;;;;;5014118;28;20618;-90
2021/10/15 08:18:16;;;;;;;0.93;0.68;;;7.40;99.90;;;;;;5024023;28;20029;-93
2021/10/15 08:20:42;;;;;;;5.18;0.93;;;7.40;99.90;;;;;;5022324;28;20463;-91
2021/10/15 08:23:08;;;;;;;3.70;1.10;;;7.50;99.90;;;;;;5020509;28;20025;-92
2021/10/15 08:25:33;;;;;;;4.32;0.80;;;7.60;99.90;;;;;;5024245;28;20049;-91
2021/10/15 08:27:59;;;;;;;4.13;0.80;;;7.70;99.90;;;;;;5031259;28;20032;-92
2021/10/15 08:30:27;;;;;;;4.43;1.00;;;7.80;99.90;;;;;;5052020;28;20025;-92
2021/10/15 08:32:53;;;;;;;4.47;0.85;;;7.80;99.90;;;;;;5035531;28;20125;-92
2021/10/15 08:35:21;;;;;;;5.97;1.17;;;7.90;99.90;;;;;;5033088;28;20053;-92
2021/10/15 08:37:47;;;;;;;19.45;3.35;;;8.00;99.90;;;;;;5046527;28;20470;-92
2021/10/15 08:40:13;;;;;;;5.93;1.60;;;8.00;99.90;;;;;;5047046;28;20025;-90
2021/10/15 08:42:46;;;;;;;9.30;1.48;;;8.00;99.90;;;;;;5030042;28;20025;-90
2021/10/15 08:45:13;;;;;;;9.88;2.00;;;8.10;99.90;;;;;;5048281;28;20033;-91
2021/10/15 08:47:40;;;;;;;9.60;3.10;;;8.10;99.90;;;;;;5019013;28;20041;-91
2021/10/15 08:50:06;;;;;;;6.07;1.45;;;8.20;99.90;;;;;;5027904;28;20049;-89
2021/10/15 08:52:32;;;;;;;9.75;1.70;;;8.20;99.90;;;;;;5012505;28;20072;-89
2021/10/15 08:54:58;;;;;;;5.32;1.15;;;8.30;99.90;;;;;;5012547;28;20419;-90
2021/10/15 08:57:24;;;;;;;8.07;1.50;;;8.30;99.90;;;;;;5012772;28;20057;-91
2021/10/15 08:59:51;;;;;;;21.33;2.70;;;8.40;99.90;;;;;;5012843;28;20030;-91
2021/10/15 09:02:23;;;;;;;9.65;1.23;;;8.50;99.90;;;;;;5016002;28;20037;-90
2021/10/15 09:04:50;;;;;;;8.68;1.27;;;8.50;99.90;;;;;;5014714;28;20034;-90
2021/10/15 09:07:19;;;;;;;10.02;1.05;;;8.50;99.90;;;;;;5014968;28;20224;-90
2021/10/15 09:09:46;;;;;;;7.95;1.48;;;8.60;99.90;;;;;;5019052;28;20482;-89
2021/10/15 09:12:15;;;;;;;11.13;1.30;;;8.70;99.90;;;;;;5012982;28;20025;-91
2021/10/15 09:14:42;;;;;;;13.48;1.80;;;8.70;99.90;;;;;;5012440;28;20038;-91
2021/10/15 09:17:12;;;;;;;11.68;2.22;;;8.80;99.90;;;;;;5012518;28;20025;-90
2021/10/15 09:19:38;;;;;;;9.85;1.85;;;8.80;99.90;;;;;;5012460;28;20419;-92
2021/10/15 09:22:17;;;;;;;11.80;1.15;;;9.00;99.90;;;;;;5012455;28;20092;-90
2021/10/15 09:24:52;;;;;;;9.25;1.63;;;9.10;99.90;;;;;;5015206;28;20033;-92
2021/10/15 09:27:32;;;;;;;11.48;1.55;;;9.30;99.90;;;;;;5013826;28;20029;-90
2021/10/15 09:30:00;;;;;;;11.77;1.73;;;9.50;99.90;;;;;;5012560;28;20061;-90
2021/10/15 09:32:29;;;;;;;9.00;1.38;;;9.70;99.90;;;;;;5021037;28;20116;-91
2021/10/15 09:34:56;;;;;;;10.38;1.27;;;10.00;99.90;;;;;;5031954;28;20091;-91
2021/10/15 09:37:28;;;;;;;6.30;1.33;;;10.20;99.90;;;;;;5048454;28;20083;-91
2021/10/15 09:40:24;;;;;;;10.82;1.60;;;10.50;99.90;;;;;;5032185;28;20052;-91
2021/10/15 09:43:02;;;;;;;8.35;1.75;;;10.90;99.90;;;;;;5028035;28;20037;-91
2021/10/15 09:45:39;;;;;;;9.77;1.73;;;11.10;99.90;;;;;;5039704;28;20025;-92
2021/10/15 09:48:25;;;;;;;10.98;2.20;;;11.50;99.90;;;;;;5035512;28;20120;-92
2021/10/15 09:51:19;;;;;;;11.15;2.20;;;11.80;99.90;;;;;;5034607;28;20029;-92
2021/10/15 09:54:19;;;;;;;17.75;1.65;;;12.10;99.90;;;;;;5035823;28;20038;-91
2021/10/15 09:56:51;;;;;;;13.15;1.63;;;12.50;99.90;;;;;;5036425;28;20033;-90
2021/10/15 09:59:17;;;;;;;11.32;2.25;;;12.90;99.90;;;;;;5040678;28;20029;-93
2021/10/15 10:01:43;;;;;;;12.63;2.00;;;13.30;99.90;;;;;;5044535;28;20039;-91
2021/10/15 10:04:10;;;;;;;15.35;2.00;;;13.60;99.90;;;;;;5041077;28;20041;-90
2021/10/15 10:06:37;;;;;;;8.20;1.67;;;13.90;99.90;;;;;;5037355;28;20026;-91
2021/10/15 10:09:05;;;;;;;19.77;2.97;;;14.20;99.90;;;;;;5035409;28;20096;-90
2021/10/15 10:11:30;;;;;;;11.27;2.00;;;14.30;99.90;;;;;;5035631;28;20083;-92
2021/10/15 10:13:56;;;;;;;11.10;1.40;;;14.30;99.90;;;;;;5052294;28;20046;-90
2021/10/15 10:16:23;;;;;;;12.23;2.33;;;14.20;99.90;;;;;;5034976;28;20049;-91
2021/10/15 10:18:54;;;;;;;11.95;1.67;;;14.20;99.90;;;;;;5035125;28;20021;-92
2021/10/15 10:21:26;;;;;;;9.35;1.95;;;14.20;99.30;;;;;;5035259;28;20055;-92
2021/10/15 10:23:59;;;;;;;14.85;2.05;;;14.20;98.50;;;;;;5035064;28;20049;-91
2021/10/15 10:26:25;;;;;;;12.10;1.85;;;14.30;98.00;;;;;;5035219;28;20124;-89
2021/10/15 10:29:03;;;;;;;15.45;1.92;;;14.30;97.30;;;;;;5035090;28;20479;-90
2021/10/15 10:31:29;;;;;;;10.07;1.35;;;14.40;96.80;;;;;;5034568;28;20022;-89
2021/10/15 10:33:59;;;;;;;12.98;1.90;;;14.50;96.40;;;;;;5034858;28;20072;-89
2021/10/15 10:36:27;;;;;;;9.27;1.80;;;14.80;95.80;;;;;;5034395;28;20034;-91
2021/10/15 10:38:53;;;;;;;15.65;1.88;;;15.10;95.50;;;;;;5034148;28;20605;-91
2021/10/15 10:41:24;;;;;;;9.65;1.58;;;15.40;94.40;;;;;;5029260;28;20025;-90
2021/10/15 10:43:50;;;;;;;15.02;2.40;;;15.60;93.30;;;;;;5039828;28;20498;-88
2021/10/15 10:46:20;;;;;;;9.35;1.50;;;15.60;92.40;;;;;;5029705;28;20052;-91
2021/10/15 10:48:49;;;;;;;11.13;1.73;;;15.50;91.90;;;;;;5023648;28;20025;-89
2021/10/15 10:51:17;;;;;;;16.90;2.10;;;15.30;91.40;;;;;;5030531;28;20034;-87
2021/10/15 10:54:03;;;;;;;13.45;1.90;;;15.20;91.00;;;;;;5033748;28;20033;-89
2021/10/15 10:56:49;;;;;;;9.15;2.05;;;15.00;90.80;;;;;;5031132;28;20109;-88
2021/10/15 10:59:17;;;;;;;13.32;2.40;;;14.90;91.10;;;;;;5033654;28;20025;-89
2021/10/15 11:01:48;;;;;;;12.63;1.77;;;14.50;91.10;;;;;;5034095;28;20032;-90
2021/10/15 11:04:30;;;;;;;12.35;1.70;;;14.30;91.30;;;;;;5024265;28;20117;-90
2021/10/15 11:07:04;;;;;;;7.90;1.50;;;14.20;91.70;;;;;;5026368;28;20024;-91
2021/10/15 11:09:39;;;;;;;6.50;1.65;;;13.90;91.40;;;;;;5024038;28;20395;-89
2021/10/15 11:12:05;;;;;;;10.88;1.55;;;13.70;91.60;;;;;;5021683;28;20018;-88
2021/10/15 11:14:51;;;;;;;13.77;2.42;;;13.70;92.00;;;;;;5022982;28;20081;-90
2021/10/15 11:17:18;;;;;;;10.38;1.85;;;13.70;92.40;;;;;;5023491;28;20026;-91
2021/10/15 11:19:44;;;;;;;10.45;1.90;;;14.00;92.60;;;;;;5021425;28;20060;-91
2021/10/15 11:22:10;;;;;;;18.02;2.45;;;14.30;92.40;;;;;;5023686;28;20376;-91
2021/10/15 11:24:36;;;;;;;13.18;2.22;;;14.50;91.50;;;;;;5025499;28;20022;-89
2021/10/15 11:27:13;;;;;;;14.50;2.30;;;14.40;90.80;;;;;;5031000;28;20503;-90
2021/10/15 11:29:49;;;;;;;13.90;1.98;;;14.20;90.50;;;;;;5033888;28;20021;-92
2021/10/15 11:32:35;;;;;;;17.42;2.13;;;14.00;90.60;;;;;;5035930;28;20038;-92
2021/10/15 11:35:05;;;;;;;10.63;1.90;;;13.80;91.00;;;;;;5040186;28;20068;-91
2021/10/15 11:37:45;;;;;;;12.43;2.08;;;13.80;91.30;;;;;;5035277;28;20079;-92
2021/10/15 11:40:18;;;;;;;12.40;1.90;;;13.80;91.30;;;;;;5033829;28;20026;-91
2021/10/15 11:42:45;;;;;;;13.95;2.47;;;13.80;91.20;;;;;;5034871;28;20129;-91
2021/10/15 11:45:22;;;;;;;18.20;3.50;;;13.70;91.10;;;;;;5038260;28;20052;-92
2021/10/15 11:47:58;;;;;;;13.63;2.22;;;13.60;91.00;;;;;;5035857;28;20025;-91
2021/10/15 11:50:44;;;;;;;13.82;3.40;;;13.50;91.30;;;;;;5020764;28;20058;-91
2021/10/15 11:53:12;;;;;;;14.93;2.47;;;13.40;91.20;;;;;;5012785;28;20034;-89
2021/10/15 11:55:40;;;;;;;12.23;2.17;;;13.40;91.20;;;;;;5014631;28;20042;-91
2021/10/15 11:58:30;;;;;;;13.25;2.97;;;13.20;91.00;;;;;;5014150;28;20052;-92
2021/10/15 12:01:04;;;;;;;9.32;2.20;;;13.20;91.30;;;;;;5013069;28;20030;-91
2021/10/15 12:03:42;;;;;;;13.63;2.65;;;13.40;91.50;;;;;;5013632;28;20086;-91
2021/10/15 12:06:18;;;;;;;12.48;2.08;;;13.50;91.40;;;;;;5013316;28;20037;-91
2021/10/15 12:08:45;;;;;;;18.38;2.40;;;13.70;91.40;;;;;;5017276;28;20033;-92
2021/10/15 12:11:17;;;;;;;14.77;2.20;;;13.70;91.20;;;;;;5016168;28;20034;-90
2021/10/15 12:13:43;;;;;;;16.67;2.05;;;13.70;91.00;;;;;;5012307;28;20133;-91
2021/10/15 12:16:21;;;;;;;10.50;1.88;;;13.80;90.90;;;;;;5013257;28;20403;-89
2021/10/15 12:19:00;;;;;;;9.57;2.03;;;13.90;90.70;;;;;;5016739;28;20048;-91
2021/10/15 12:21:50;;;;;;;12.18;2.08;;;14.10;90.40;;;;;;5022280;28;20031;-90
2021/10/15 12:24:32;;;;;;;10.23;2.57;;;14.20;90.10;;;;;;5031677;28;20083;-91
2021/10/15 12:27:10;;;;;;;10.05;2.60;;;14.20;89.70;;;;;;5033314;28;20338;-89
2021/10/15 12:29:56;;;;;;;9.32;2.03;;;14.60;89.50;;;;;;5032320;28;20022;-90
2021/10/15 12:32:24;;;;;;;6.72;1.48;;;15.20;88.50;;;;;;5031881;28;20483;-89
2021/10/15 12:34:49;;;;;;;9.93;1.90;;;15.70;86.90;;;;;;5031797;28;20038;-89
2021/10/15 12:37:15;;;;;;;6.95;1.88;;;16.10;84.80;;;;;;5031641;28;20091;-88
2021/10/15 12:39:43;;;;;;;9.77;2.05;;;16.30;83.00;;;;;;5032227;28;20079;-89
2021/10/15 12:42:16;;;;;;;7.32;1.60;;;16.40;82.00;;;;;;5030745;28;20033;-91
2021/10/15 12:44:41;;;;;;;10.10;2.10;;;16.60;80.90;;;;;;5012655;28;20032;-89
2021/10/15 12:47:08;;;;;;;9.60;1.67;;;16.70;80.40;;;;;;5011792;28;20398;-89
2021/10/15 12:50:00;;;;;;;8.98;2.00;;;16.60;79.20;;;;;;5012462;28;20036;-88
2021/10/15 12:52:38;;;;;;;5.53;1.77;;;16.40;79.00;;;;;;5012665;28;20045;-88
2021/10/15 12:55:17;;;;;;;13.15;1.48;;;16.20;79.10;;;;;;5016907;28;20060;-90
2021/10/15 12:57:44;;;;;;;9.90;1.77;;;16.00;79.30;;;;;;5015365;28;20076;-89
2021/10/15 13:00:11;;;;;;;8.82;1.60;;;16.00;79.40;;;;;;5012425;28;20037;-89
2021/10/15 13:02:38;;;;;;;5.32;1.48;;;16.10;79.10;;;;;;5013285;28;20105;-88
2021/10/15 13:05:10;;;;;;;13.80;1.52;;;16.30;78.60;;;;;;5012316;28;20022;-89
2021/10/15 13:07:37;;;;;;;10.48;1.83;;;16.70;77.50;;;;;;5013647;28;20108;-88
2021/10/15 13:10:15;;;;;;;6.90;1.95;;;17.30;75.80;;;;;;5014388;28;20472;-89
2021/10/15 13:12:40;;;;;;;9.15;1.90;;;17.60;73.20;;;;;;5016416;28;20076;-89